Time;durP1;ratioP1;P1;durP2;ratioP2;P2;SDS_P1;SDS_P2;PMS_P1;PMS_P2;Temp;Humidity;BMP_temperature;BMP_pressure;BME280_temperature;BME280_humidity;BME280_pressure;Samples;Min_cycle;Max_cycle;Signal;HPM_P1;HPM_P2
2022/09/29 00:00:36;;;;;;;4.07;2.90;;;;;;;;;;5021052;28;92774;-59
2022/09/29 00:03:05;;;;;;;4.53;2.93;;;;;;;;;;5034592;28;91963;-59
2022/09/29 00:05:33;;;;;;;5.03;3.23;;;;;;;;;;5019890;28;91410;-59
2022/09/29 00:08:01;;;;;;;3.77;2.80;;;;;;;;;;5037822;28;92894;-59
2022/09/29 00:10:30;;;;;;;3.60;2.90;;;;;;;;;;5028802;28;92556;-59
2022/09/29 00:12:59;;;;;;;3.53;2.13;;;;;;;;;;5030441;28;93061;-59
2022/09/29 00:15:28;;;;;;;4.93;2.50;;;;;;;;;;5028960;28;92127;-59
2022/09/29 00:17:56;;;;;;;4.00;2.83;;;;;;;;;;5037990;28;94498;-59
2022/09/29 00:20:41;;;;;;;5.93;2.57;;;;;;;;;;5036301;28;92752;-59
2022/09/29 00:23:09;;;;;;;4.37;2.37;;;;;;;;;;5030608;28;92243;-59
2022/09/29 00:25:37;;;;;;;4.03;2.90;;;;;;;;;;5038892;28;92361;-59
2022/09/29 00:28:07;;;;;;;4.03;2.33;;;;;;;;;;5033230;28;94087;-59
2022/09/29 00:30:35;;;;;;;3.37;2.10;;;;;;;;;;5037828;28;92927;-59
2022/09/29 00:33:03;;;;;;;3.77;2.50;;;;;;;;;;5018262;28;92113;-59
2022/09/29 00:35:31;;;;;;;2.30;2.00;;;;;;;;;;5024286;28;92112;-59
2022/09/29 00:38:00;;;;;;;3.77;2.30;;;;;;;;;;5019000;28;94170;-59
2022/09/29 00:40:28;;;;;;;3.73;2.47;;;;;;;;;;5003323;28;94520;-59
2022/09/29 00:42:56;;;;;;;4.20;1.93;;;;;;;;;;5026887;28;92146;-59
2022/09/29 00:45:26;;;;;;;4.27;2.60;;;;;;;;;;5038866;28;92020;-59
2022/09/29 00:47:59;;;;;;;2.33;2.03;;;;;;;;;;5027980;28;92225;-59
2022/09/29 00:50:28;;;;;;;3.00;2.10;;;;;;;;;;5017795;28;92509;-59
2022/09/29 00:52:57;;;;;;;5.17;1.90;;;;;;;;;;5018707;28;92110;-59
2022/09/29 00:55:26;;;;;;;5.33;1.87;;;;;;;;;;5018163;28;91700;-59
2022/09/29 00:57:54;;;;;;;2.00;1.50;;;;;;;;;;5017204;28;93153;-59
2022/09/29 01:00:23;;;;;;;2.60;2.00;;;;;;;;;;5032452;28;92548;-59
2022/09/29 01:02:53;;;;;;;3.30;1.97;;;;;;;;;;5027537;28;93220;-59
2022/09/29 01:05:22;;;;;;;3.63;1.90;;;;;;;;;;5017851;28;92167;-59
2022/09/29 01:07:50;;;;;;;2.13;1.93;;;;;;;;;;5018515;28;92844;-59
2022/09/29 01:10:19;;;;;;;2.93;1.50;;;;;;;;;;5024973;28;92531;-59
2022/09/29 01:12:47;;;;;;;2.97;2.60;;;;;;;;;;5018336;28;92084;-59
2022/09/29 01:15:16;;;;;;;1.83;1.63;;;;;;;;;;5018433;28;92139;-59
2022/09/29 01:17:46;;;;;;;2.80;2.23;;;;;;;;;;5018701;28;94112;-59
2022/09/29 01:20:17;;;;;;;1.93;1.83;;;;;;;;;;5026104;28;92837;-59
2022/09/29 01:22:54;;;;;;;2.90;1.83;;;;;;;;;;5031190;28;92088;-59
2022/09/29 01:25:29;;;;;;;1.87;1.67;;;;;;;;;;5020190;28;92171;-59
2022/09/29 01:28:12;;;;;;;2.73;1.30;;;;;;;;;;5017319;28;94132;-59
2022/09/29 01:30:48;;;;;;;2.70;1.13;;;;;;;;;;5019961;28;95248;-59
2022/09/29 01:33:22;;;;;;;1.73;1.27;;;;;;;;;;5018084;28;92666;-59
2022/09/29 01:35:53;;;;;;;2.07;1.40;;;;;;;;;;5027826;28;92203;-59
2022/09/29 01:38:28;;;;;;;1.50;1.40;;;;;;;;;;5020292;28;93249;-59
2022/09/29 01:40:59;;;;;;;1.30;1.20;;;;;;;;;;5017693;28;93482;-59
2022/09/29 01:43:28;;;;;;;2.00;1.83;;;;;;;;;;5018697;28;92132;-59
2022/09/29 01:46:00;;;;;;;1.47;0.90;;;;;;;;;;5019485;28;91426;-59
2022/09/29 01:48:29;;;;;;;2.40;1.43;;;;;;;;;;5030314;28;93092;-59
2022/09/29 01:50:59;;;;;;;1.07;0.90;;;;;;;;;;5017277;28;94372;-59
2022/09/29 01:53:28;;;;;;;3.50;1.10;;;;;;;;;;5018783;28;94082;-59
2022/09/29 01:55:58;;;;;;;2.53;1.30;;;;;;;;;;5018458;28;92354;-59
2022/09/29 01:58:28;;;;;;;2.00;1.40;;;;;;;;;;5017734;28;94207;-59
2022/09/29 02:00:57;;;;;;;1.00;0.90;;;;;;;;;;5024009;28;93820;-59
2022/09/29 02:03:28;;;;;;;1.53;1.10;;;;;;;;;;5017975;28;91985;-59
2022/09/29 02:05:57;;;;;;;4.03;1.10;;;;;;;;;;5017855;28;92679;-59
2022/09/29 02:08:26;;;;;;;1.23;1.17;;;;;;;;;;5024924;28;94155;-58
2022/09/29 02:10:54;;;;;;;0.90;0.90;;;;;;;;;;5029675;28;93846;-59
2022/09/29 02:13:23;;;;;;;0.97;0.93;;;;;;;;;;5021358;28;92186;-59
2022/09/29 02:15:51;;;;;;;1.10;1.00;;;;;;;;;;5021811;27;92486;-58
2022/09/29 02:18:21;;;;;;;2.53;1.40;;;;;;;;;;5027091;28;94279;-59
2022/09/29 02:20:50;;;;;;;1.03;0.80;;;;;;;;;;5016164;28;93623;-58
2022/09/29 02:23:19;;;;;;;1.03;0.83;;;;;;;;;;5017175;28;92121;-59
2022/09/29 02:25:47;;;;;;;1.63;1.10;;;;;;;;;;5035936;28;92154;-58
2022/09/29 02:28:15;;;;;;;0.93;0.93;;;;;;;;;;5032781;28;93288;-59
2022/09/29 02:30:44;;;;;;;1.07;0.97;;;;;;;;;;5026935;28;93906;-59
2022/09/29 02:33:18;;;;;;;2.57;1.23;;;;;;;;;;5027690;28;92304;-59
2022/09/29 02:35:49;;;;;;;1.17;1.07;;;;;;;;;;5018968;28;93448;-59
2022/09/29 02:38:20;;;;;;;1.43;0.93;;;;;;;;;;5029287;28;93962;-59
2022/09/29 02:40:50;;;;;;;2.07;1.30;;;;;;;;;;5027321;28;93954;-59
2022/09/29 02:43:24;;;;;;;1.00;0.80;;;;;;;;;;5017486;28;93142;-59
2022/09/29 02:45:56;;;;;;;3.63;1.40;;;;;;;;;;5031741;28;92116;-59
2022/09/29 02:48:35;;;;;;;4.27;1.23;;;;;;;;;;5017921;28;92058;-59
2022/09/29 02:51:07;;;;;;;1.87;1.40;;;;;;;;;;5018102;28;92392;-59
2022/09/29 02:53:40;;;;;;;1.87;1.67;;;;;;;;;;5014332;28;92513;-59
2022/09/29 02:56:10;;;;;;;1.83;1.47;;;;;;;;;;5017301;28;92198;-59
2022/09/29 02:58:39;;;;;;;2.60;1.90;;;;;;;;;;5016571;28;92743;-59
2022/09/29 03:01:13;;;;;;;2.73;2.17;;;;;;;;;;5021956;28;93150;-59
2022/09/29 03:03:41;;;;;;;3.40;2.40;;;;;;;;;;5028868;28;92084;-59
2022/09/29 03:06:09;;;;;;;3.10;2.10;;;;;;;;;;5019113;28;92165;-59
2022/09/29 03:08:39;;;;;;;3.43;2.20;;;;;;;;;;5023146;28;94203;-59
2022/09/29 03:11:07;;;;;;;3.90;2.13;;;;;;;;;;5033560;28;94880;-59
2022/09/29 03:13:36;;;;;;;5.70;2.10;;;;;;;;;;5016775;28;92057;-59
2022/09/29 03:16:04;;;;;;;3.97;2.50;;;;;;;;;;5016901;28;92046;-59
2022/09/29 03:18:32;;;;;;;3.77;2.37;;;;;;;;;;5015058;28;93544;-59
2022/09/29 03:21:01;;;;;;;4.63;3.17;;;;;;;;;;5015840;28;92726;-59
2022/09/29 03:23:29;;;;;;;4.13;2.37;;;;;;;;;;5015395;28;92602;-59
2022/09/29 03:25:58;;;;;;;4.97;2.50;;;;;;;;;;5018000;28;91340;-59
2022/09/29 03:28:27;;;;;;;3.20;2.57;;;;;;;;;;5015450;28;94092;-59
2022/09/29 03:30:55;;;;;;;4.17;2.70;;;;;;;;;;5013749;28;92910;-59
2022/09/29 03:33:23;;;;;;;3.23;2.50;;;;;;;;;;5021265;28;93022;-59
2022/09/29 03:35:51;;;;;;;4.67;2.67;;;;;;;;;;5025799;28;92193;-59
2022/09/29 03:38:20;;;;;;;8.43;3.63;;;;;;;;;;5025573;28;94432;-59
2022/09/29 03:40:48;;;;;;;6.20;3.00;;;;;;;;;;5016600;28;95760;-59
2022/09/29 03:43:18;;;;;;;5.23;3.27;;;;;;;;;;5015535;28;92404;-59
2022/09/29 03:45:49;;;;;;;4.80;3.33;;;;;;;;;;5015943;28;92090;-59
2022/09/29 03:48:18;;;;;;;5.67;3.90;;;;;;;;;;5017452;28;94541;-59
2022/09/29 03:50:52;;;;;;;5.13;3.33;;;;;;;;;;5017764;28;93888;-59
2022/09/29 03:53:20;;;;;;;8.10;3.93;;;;;;;;;;5026939;28;92120;-59
2022/09/29 03:55:49;;;;;;;6.53;4.47;;;;;;;;;;5035814;28;92137;-59
2022/09/29 03:58:19;;;;;;;4.87;4.20;;;;;;;;;;5027391;28;95976;-59
2022/09/29 04:00:48;;;;;;;5.83;4.13;;;;;;;;;;5035980;28;94952;-59
2022/09/29 04:03:16;;;;;;;6.87;4.53;;;;;;;;;;5023049;28;92388;-59
2022/09/29 04:05:45;;;;;;;6.77;4.50;;;;;;;;;;5017150;28;92038;-59
2022/09/29 04:08:13;;;;;;;8.20;4.50;;;;;;;;;;5013956;28;93196;-59
2022/09/29 04:10:42;;;;;;;7.40;5.10;;;;;;;;;;5035825;28;92791;-59
2022/09/29 04:13:10;;;;;;;8.53;4.87;;;;;;;;;;5020934;28;92166;-59
2022/09/29 04:15:39;;;;;;;8.23;4.07;;;;;;;;;;5016318;28;91486;-59
2022/09/29 04:18:08;;;;;;;6.97;4.93;;;;;;;;;;5014807;28;93995;-59
2022/09/29 04:20:36;;;;;;;7.77;4.97;;;;;;;;;;5029712;28;92632;-59
2022/09/29 04:23:05;;;;;;;6.03;4.53;;;;;;;;;;5022376;28;93162;-59
2022/09/29 04:25:33;;;;;;;8.37;5.47;;;;;;;;;;5036879;28;92028;-59
2022/09/29 04:28:02;;;;;;;6.10;5.00;;;;;;;;;;5025823;28;92173;-59
2022/09/29 04:30:30;;;;;;;13.10;5.80;;;;;;;;;;5018652;28;93803;-59
2022/09/29 04:32:59;;;;;;;10.70;5.60;;;;;;;;;;5030480;28;92702;-59
2022/09/29 04:35:28;;;;;;;7.30;5.30;;;;;;;;;;5026432;28;92177;-59
2022/09/29 04:38:01;;;;;;;10.80;6.13;;;;;;;;;;5026290;28;93438;-58
2022/09/29 04:40:30;;;;;;;11.73;6.77;;;;;;;;;;5035241;28;94022;-59
2022/09/29 04:42:58;;;;;;;11.10;6.37;;;;;;;;;;5014793;28;92149;-59
2022/09/29 04:45:26;;;;;;;10.97;5.97;;;;;;;;;;5039417;28;92131;-59
2022/09/29 04:47:55;;;;;;;9.93;6.67;;;;;;;;;;5028708;28;95053;-59
2022/09/29 04:50:24;;;;;;;8.90;5.87;;;;;;;;;;5019320;28;94428;-59
2022/09/29 04:52:52;;;;;;;9.43;6.47;;;;;;;;;;5024095;28;92166;-59
2022/09/29 04:55:21;;;;;;;9.83;6.33;;;;;;;;;;5038986;28;92096;-59
2022/09/29 04:57:49;;;;;;;11.83;6.53;;;;;;;;;;5039300;28;93811;-59
2022/09/29 05:00:17;;;;;;;11.77;6.17;;;;;;;;;;5038751;28;93798;-59
2022/09/29 05:02:45;;;;;;;10.17;6.40;;;;;;;;;;5032805;28;93853;-59
2022/09/29 05:05:17;;;;;;;10.10;5.90;;;;;;;;;;5020188;28;91415;-59
2022/09/29 05:07:47;;;;;;;12.40;5.70;;;;;;;;;;5025209;28;93825;-59
2022/09/29 05:10:15;;;;;;;8.20;5.50;;;;;;;;;;5020086;28;93857;-59
2022/09/29 05:12:48;;;;;;;9.40;5.50;;;;;;;;;;5021974;28;93038;-59
2022/09/29 05:15:17;;;;;;;10.93;6.07;;;;;;;;;;5034113;28;92104;-59
2022/09/29 05:17:52;;;;;;;12.30;6.00;;;;;;;;;;5022351;28;94356;-59
2022/09/29 05:20:20;;;;;;;10.30;6.17;;;;;;;;;;5017837;28;93873;-59
2022/09/29 05:22:49;;;;;;;10.70;5.93;;;;;;;;;;5019672;28;92053;-59
2022/09/29 05:25:18;;;;;;;9.23;5.57;;;;;;;;;;5031738;28;92224;-59
2022/09/29 05:27:46;;;;;;;15.23;6.17;;;;;;;;;;5039504;28;92027;-61
2022/09/29 05:30:14;;;;;;;8.47;5.27;;;;;;;;;;5025466;28;93845;-59
2022/09/29 05:32:43;;;;;;;10.40;6.23;;;;;;;;;;5018833;28;92102;-60
2022/09/29 05:35:11;;;;;;;8.37;5.33;;;;;;;;;;5030274;28;92116;-59
2022/09/29 05:37:39;;;;;;;8.50;4.60;;;;;;;;;;5027919;28;95164;-59
2022/09/29 05:40:10;;;;;;;10.57;5.60;;;;;;;;;;5017664;28;94033;-59
2022/09/29 05:42:39;;;;;;;7.33;5.13;;;;;;;;;;5026117;28;92175;-59
2022/09/29 05:45:09;;;;;;;6.67;5.33;;;;;;;;;;5020231;28;92215;-59
2022/09/29 05:47:37;;;;;;;7.40;5.53;;;;;;;;;;5038038;28;93312;-59
2022/09/29 05:50:05;;;;;;;8.83;5.13;;;;;;;;;;5038462;28;93135;-59
2022/09/29 05:52:34;;;;;;;8.53;4.83;;;;;;;;;;5031835;28;92178;-59
2022/09/29 05:55:02;;;;;;;7.13;5.37;;;;;;;;;;5019178;28;93180;-59
2022/09/29 05:57:32;;;;;;;8.13;5.07;;;;;;;;;;5018037;28;92938;-59
2022/09/29 06:00:01;;;;;;;6.77;5.10;;;;;;;;;;5017673;28;92801;-59
2022/09/29 06:02:29;;;;;;;9.23;4.87;;;;;;;;;;5018030;28;93153;-59
2022/09/29 06:04:57;;;;;;;5.07;3.97;;;;;;;;;;5029146;28;92174;-59
2022/09/29 06:07:26;;;;;;;6.87;4.70;;;;;;;;;;5032659;28;93084;-59
2022/09/29 06:09:54;;;;;;;8.13;4.03;;;;;;;;;;5026542;28;93920;-59
2022/09/29 06:12:22;;;;;;;6.03;4.50;;;;;;;;;;5019228;28;92111;-59
2022/09/29 06:14:52;;;;;;;8.20;4.90;;;;;;;;;;5018123;28;92122;-59
2022/09/29 06:17:20;;;;;;;10.50;4.27;;;;;;;;;;5018084;28;93379;-59
2022/09/29 06:19:49;;;;;;;6.33;3.67;;;;;;;;;;5019026;28;92884;-59
2022/09/29 06:22:17;;;;;;;7.10;3.40;;;;;;;;;;5030149;28;92111;-59
2022/09/29 06:24:45;;;;;;;8.93;4.47;;;;;;;;;;5025541;28;92070;-59
2022/09/29 06:27:16;;;;;;;4.80;3.40;;;;;;;;;;5032299;28;93055;-59
2022/09/29 06:29:44;;;;;;;6.70;3.97;;;;;;;;;;5016056;28;94839;-61
2022/09/29 06:32:14;;;;;;;9.37;4.37;;;;;;;;;;5017707;28;92229;-59
2022/09/29 06:37:34;;;;;;;5.10;3.83;;;;;;;;;;5023414;28;93146;-59
2022/09/29 06:40:03;;;;;;;7.47;4.00;;;;;;;;;;5014637;28;93098;-59
2022/09/29 06:42:38;;;;;;;5.77;3.60;;;;;;;;;;5008879;28;92153;-60
2022/09/29 06:45:07;;;;;;;6.17;3.53;;;;;;;;;;5031207;28;93242;-59
2022/09/29 06:47:36;;;;;;;4.53;2.87;;;;;;;;;;5021799;28;93305;-57
2022/09/29 06:50:05;;;;;;;3.00;2.57;;;;;;;;;;5017742;28;93477;-59
2022/09/29 06:52:34;;;;;;;5.47;3.27;;;;;;;;;;5016113;28;93179;-57
2022/09/29 06:55:02;;;;;;;3.93;2.77;;;;;;;;;;5033721;28;92052;-58
2022/09/29 06:57:30;;;;;;;4.77;3.13;;;;;;;;;;5016663;28;94219;-57
2022/09/29 06:59:59;;;;;;;4.40;2.80;;;;;;;;;;5016894;28;93709;-56
2022/09/29 07:02:27;;;;;;;5.63;3.47;;;;;;;;;;5022895;28;92093;-54
2022/09/29 07:04:57;;;;;;;2.57;2.20;;;;;;;;;;5032394;28;92266;-55
2022/09/29 07:07:25;;;;;;;6.10;2.93;;;;;;;;;;5030174;28;93146;-55
2022/09/29 07:09:54;;;;;;;4.33;2.83;;;;;;;;;;5017589;28;94010;-52
2022/09/29 07:12:22;;;;;;;4.83;3.10;;;;;;;;;;5028835;28;92125;-54
2022/09/29 07:14:51;;;;;;;3.10;2.37;;;;;;;;;;5017116;28;92301;-53
2022/09/29 07:17:19;;;;;;;7.77;3.27;;;;;;;;;;5027070;28;95183;-55
2022/09/29 07:19:47;;;;;;;4.17;3.43;;;;;;;;;;5034355;28;94448;-54
2022/09/29 07:22:17;;;;;;;6.37;3.30;;;;;;;;;;5020190;28;92057;-52
2022/09/29 07:24:46;;;;;;;4.10;3.17;;;;;;;;;;5022282;28;92589;-55
2022/09/29 07:27:14;;;;;;;4.60;3.23;;;;;;;;;;5016803;28;94116;-56
2022/09/29 07:29:43;;;;;;;5.43;4.40;;;;;;;;;;5016722;28;92695;-55
2022/09/29 07:32:20;;;;;;;4.73;3.33;;;;;;;;;;5033794;28;92239;-56
2022/09/29 07:34:55;;;;;;;6.57;3.37;;;;;;;;;;5032167;28;91467;-57
2022/09/29 07:37:25;;;;;;;5.63;3.77;;;;;;;;;;5030076;28;93195;-55
2022/09/29 07:39:53;;;;;;;6.57;3.90;;;;;;;;;;5015688;28;94306;-55
2022/09/29 07:42:21;;;;;;;5.73;4.23;;;;;;;;;;5023150;28;93163;-55
2022/09/29 07:44:50;;;;;;;7.60;3.30;;;;;;;;;;5028854;28;93111;-57
2022/09/29 07:47:19;;;;;;;5.77;3.33;;;;;;;;;;5024557;28;92999;-58
2022/09/29 07:49:48;;;;;;;5.10;3.40;;;;;;;;;;5035379;28;93698;-57
2022/09/29 07:52:16;;;;;;;4.43;3.43;;;;;;;;;;5015577;28;92633;-56
2022/09/29 07:54:46;;;;;;;4.60;3.53;;;;;;;;;;5022965;28;92099;-56
2022/09/29 07:57:14;;;;;;;6.93;3.50;;;;;;;;;;5027256;28;94667;-57
2022/09/29 07:59:42;;;;;;;5.53;4.03;;;;;;;;;;5010457;28;92790;-57
2022/09/29 08:02:19;;;;;;;5.10;3.73;;;;;;;;;;5026336;28;92065;-55
2022/09/29 08:04:48;;;;;;;7.13;4.17;;;;;;;;;;5024971;28;92162;-57
2022/09/29 08:07:16;;;;;;;8.20;3.80;;;;;;;;;;5018191;28;94082;-56
2022/09/29 08:09:46;;;;;;;8.80;4.97;;;;;;;;;;5017400;28;94966;-56
2022/09/29 08:12:15;;;;;;;6.50;3.57;;;;;;;;;;5020477;28;92599;-55
2022/09/29 08:14:43;;;;;;;6.47;4.23;;;;;;;;;;5019728;28;92180;-57
2022/09/29 08:17:11;;;;;;;6.67;4.20;;;;;;;;;;5017854;28;93160;-56
2022/09/29 08:19:40;;;;;;;11.30;4.87;;;;;;;;;;5019182;28;94025;-57
2022/09/29 08:22:08;;;;;;;7.27;5.07;;;;;;;;;;5020131;28;92023;-56
2022/09/29 08:24:39;;;;;;;7.07;4.37;;;;;;;;;;5019902;28;91298;-57
2022/09/29 08:27:08;;;;;;;13.63;4.70;;;;;;;;;;5017304;28;93945;-56
2022/09/29 08:29:46;;;;;;;7.17;4.43;;;;;;;;;;5015371;28;94185;-57
2022/09/29 08:32:16;;;;;;;6.67;4.40;;;;;;;;;;5018874;28;92948;-56
2022/09/29 08:34:44;;;;;;;9.47;4.87;;;;;;;;;;5019144;28;92049;-56
2022/09/29 08:37:12;;;;;;;4.43;4.03;;;;;;;;;;5017549;28;94148;-56
2022/09/29 08:39:41;;;;;;;6.77;4.17;;;;;;;;;;5020088;28;93646;-56
2022/09/29 08:42:13;;;;;;;5.43;4.00;;;;;;;;;;5019258;28;92311;-57
2022/09/29 08:44:41;;;;;;;6.10;4.27;;;;;;;;;;5019535;28;92113;-56
2022/09/29 08:47:15;;;;;;;5.20;3.97;;;;;;;;;;5019228;28;93157;-55
2022/09/29 08:49:43;;;;;;;6.67;4.13;;;;;;;;;;5018432;28;93983;-56
2022/09/29 08:52:12;;;;;;;7.80;4.80;;;;;;;;;;5017841;28;92153;-57
2022/09/29 08:54:45;;;;;;;10.93;5.20;;;;;;;;;;5017644;28;92242;-56
2022/09/29 08:57:18;;;;;;;7.07;4.67;;;;;;;;;;5019583;28;93896;-56
2022/09/29 08:59:47;;;;;;;9.93;5.43;;;;;;;;;;5019823;28;93767;-57
2022/09/29 09:02:23;;;;;;;9.07;5.07;;;;;;;;;;5017881;28;92104;-55
2022/09/29 09:05:01;;;;;;;6.67;5.10;;;;;;;;;;5019433;28;92423;-55
2022/09/29 09:07:31;;;;;;;10.07;5.53;;;;;;;;;;5019369;28;92984;-55
2022/09/29 09:10:03;;;;;;;8.33;4.83;;;;;;;;;;5018627;28;93968;-55
2022/09/29 09:12:46;;;;;;;8.60;4.90;;;;;;;;;;5019981;28;92080;-56
2022/09/29 09:15:18;;;;;;;8.80;4.70;;;;;;;;;;5018907;28;91369;-57
2022/09/29 09:17:50;;;;;;;10.27;5.70;;;;;;;;;;5019007;28;93130;-55
2022/09/29 09:20:21;;;;;;;8.67;5.83;;;;;;;;;;5019063;28;92902;-53
2022/09/29 09:22:52;;;;;;;6.40;4.07;;;;;;;;;;5019420;28;92938;-55
2022/09/29 09:25:21;;;;;;;10.23;4.93;;;;;;;;;;5019014;28;92164;-55
2022/09/29 09:27:53;;;;;;;8.20;4.73;;;;;;;;;;5018086;28;92958;-55
2022/09/29 09:30:22;;;;;;;6.07;3.73;;;;;;;;;;5018422;28;92894;-55
2022/09/29 09:32:51;;;;;;;6.70;4.93;;;;;;;;;;5019795;28;92057;-54
2022/09/29 09:35:26;;;;;;;6.10;4.60;;;;;;;;;;5019623;28;92104;-54
2022/09/29 09:37:54;;;;;;;5.83;4.03;;;;;;;;;;5019486;28;93971;-57
2022/09/29 09:40:23;;;;;;;8.57;5.03;;;;;;;;;;5019015;28;92950;-56
2022/09/29 09:42:54;;;;;;;7.50;4.47;;;;;;;;;;5018936;28;92105;-53
2022/09/29 09:45:25;;;;;;;6.13;3.87;;;;;;;;;;5018434;28;92162;-56
2022/09/29 09:47:54;;;;;;;10.03;4.90;;;;;;;;;;5019074;28;94045;-53
2022/09/29 09:50:24;;;;;;;6.87;3.60;;;;;;;;;;5018575;28;94884;-56
2022/09/29 09:52:52;;;;;;;7.57;5.00;;;;;;;;;;5019054;28;92102;-56
2022/09/29 09:55:23;;;;;;;6.10;3.90;;;;;;;;;;5018687;28;92097;-56
2022/09/29 09:57:59;;;;;;;7.80;3.77;;;;;;;;;;5018285;28;94366;-56
2022/09/29 10:00:29;;;;;;;7.83;4.20;;;;;;;;;;5018750;28;93628;-56
2022/09/29 10:02:58;;;;;;;4.77;3.50;;;;;;;;;;5018101;28;92046;-56
2022/09/29 10:05:30;;;;;;;6.20;4.43;;;;;;;;;;5019074;28;91718;-56
2022/09/29 10:07:59;;;;;;;10.17;4.77;;;;;;;;;;5017374;28;93170;-54
2022/09/29 10:10:28;;;;;;;15.77;4.43;;;;;;;;;;5019514;28;94050;-56
2022/09/29 10:12:57;;;;;;;7.10;3.90;;;;;;;;;;5019871;28;93380;-56
2022/09/29 10:15:30;;;;;;;5.60;4.20;;;;;;;;;;5020464;28;92099;-56
2022/09/29 10:18:02;;;;;;;6.43;3.73;;;;;;;;;;5037706;28;93112;-56
2022/09/29 10:20:33;;;;;;;3.50;2.63;;;;;;;;;;5038084;28;92899;-56
2022/09/29 10:23:20;;;;;;;5.27;3.23;;;;;;;;;;5020229;28;92053;-57
2022/09/29 10:25:52;;;;;;;5.23;3.53;;;;;;;;;;5019154;28;92077;-56
2022/09/29 10:28:21;;;;;;;5.93;3.50;;;;;;;;;;5018397;28;95376;-57
2022/09/29 10:30:50;;;;;;;5.40;2.80;;;;;;;;;;5018803;28;92964;-56
2022/09/29 10:33:19;;;;;;;5.90;3.00;;;;;;;;;;5018532;28;92208;-55
2022/09/29 10:35:48;;;;;;;4.10;2.67;;;;;;;;;;5018779;28;92074;-56
2022/09/29 10:38:17;;;;;;;8.73;3.17;;;;;;;;;;5017915;28;94125;-59
2022/09/29 10:40:57;;;;;;;5.33;3.10;;;;;;;;;;5017875;28;94577;-55
2022/09/29 10:43:26;;;;;;;5.90;2.90;;;;;;;;;;5017857;28;92164;-56
2022/09/29 10:45:58;;;;;;;5.07;3.43;;;;;;;;;;5017737;28;92396;-55
2022/09/29 10:48:27;;;;;;;4.87;2.53;;;;;;;;;;5017628;28;93045;-54
2022/09/29 10:50:55;;;;;;;2.80;2.23;;;;;;;;;;5016571;28;93777;-55
2022/09/29 10:53:26;;;;;;;8.67;2.10;;;;;;;;;;5017853;28;92273;-55
2022/09/29 10:55:54;;;;;;;2.47;2.20;;;;;;;;;;5018239;28;91396;-56
2022/09/29 10:58:25;;;;;;;4.63;1.90;;;;;;;;;;5017771;28;93362;-56
2022/09/29 11:01:15;;;;;;;1.97;1.73;;;;;;;;;;5017840;28;92447;-55
2022/09/29 11:03:47;;;;;;;1.53;1.40;;;;;;;;;;5017592;28;93158;-56
2022/09/29 11:06:15;;;;;;;1.80;1.50;;;;;;;;;;5017998;28;91963;-54
2022/09/29 11:09:00;;;;;;;2.90;1.83;;;;;;;;;;5017963;28;93249;-55
2022/09/29 11:11:29;;;;;;;3.33;1.87;;;;;;;;;;5018132;28;93966;-55
2022/09/29 11:13:58;;;;;;;2.30;1.77;;;;;;;;;;5018272;28;92119;-55
2022/09/29 11:16:32;;;;;;;1.80;1.50;;;;;;;;;;5017895;28;91975;-55
2022/09/29 11:19:02;;;;;;;2.67;2.07;;;;;;;;;;5017493;28;93199;-56
2022/09/29 11:21:46;;;;;;;2.87;1.63;;;;;;;;;;5017850;28;92714;-56
2022/09/29 11:24:15;;;;;;;1.87;1.50;;;;;;;;;;5018215;28;92142;-56
2022/09/29 11:26:45;;;;;;;1.60;1.50;;;;;;;;;;5018195;28;92182;-55
2022/09/29 11:29:18;;;;;;;2.23;1.83;;;;;;;;;;5016960;28;94902;-55
2022/09/29 11:31:50;;;;;;;2.00;1.50;;;;;;;;;;5017269;28;93798;-56
2022/09/29 11:34:31;;;;;;;5.00;1.70;;;;;;;;;;5017936;28;92115;-56
2022/09/29 11:37:01;;;;;;;3.00;1.60;;;;;;;;;;5018034;28;92137;-56
2022/09/29 11:39:32;;;;;;;2.77;1.70;;;;;;;;;;5018572;28;93129;-55
2022/09/29 11:42:03;;;;;;;1.17;1.10;;;;;;;;;;5020967;28;93768;-56
2022/09/29 11:44:39;;;;;;;1.60;1.17;;;;;;;;;;5021239;28;91948;-55
2022/09/29 11:47:11;;;;;;;1.70;1.10;;;;;;;;;;5021492;28;91214;-55
2022/09/29 11:49:42;;;;;;;1.37;1.10;;;;;;;;;;5020512;28;93944;-55
2022/09/29 11:52:20;;;;;;;3.53;1.20;;;;;;;;;;5021173;28;92947;-56
2022/09/29 11:54:51;;;;;;;2.10;1.50;;;;;;;;;;5021132;28;93130;-54
2022/09/29 11:57:22;;;;;;;2.97;1.63;;;;;;;;;;5021398;28;92142;-55
2022/09/29 11:59:57;;;;;;;2.40;1.60;;;;;;;;;;5020867;28;94074;-56
2022/09/29 12:02:34;;;;;;;2.90;1.47;;;;;;;;;;5019460;28;92116;-57
2022/09/29 12:05:04;;;;;;;1.57;1.30;;;;;;;;;;5021203;28;91988;-55
2022/09/29 12:07:35;;;;;;;3.23;1.70;;;;;;;;;;5020715;28;92143;-55
2022/09/29 12:10:22;;;;;;;1.40;1.27;;;;;;;;;;5016481;28;93256;-55
2022/09/29 12:12:54;;;;;;;2.73;1.23;;;;;;;;;;5035984;28;92387;-56
2022/09/29 12:15:25;;;;;;;4.43;1.33;;;;;;;;;;5035295;28;95080;-55
2022/09/29 12:17:55;;;;;;;1.73;1.37;;;;;;;;;;5008425;28;92143;-56
2022/09/29 12:20:25;;;;;;;3.03;1.57;;;;;;;;;;4998746;28;94028;-55
2022/09/29 12:22:54;;;;;;;2.03;1.43;;;;;;;;;;5011438;28;93759;-56
2022/09/29 12:25:24;;;;;;;2.30;1.50;;;;;;;;;;5020439;28;91953;-55
2022/09/29 12:27:53;;;;;;;1.50;1.30;;;;;;;;;;5014976;28;92126;-55
2022/09/29 12:30:22;;;;;;;1.50;1.40;;;;;;;;;;5000202;28;94183;-56
2022/09/29 12:32:51;;;;;;;1.37;1.27;;;;;;;;;;5000279;28;92774;-55
2022/09/29 12:35:22;;;;;;;2.33;1.40;;;;;;;;;;4999981;28;92150;-55
2022/09/29 12:37:52;;;;;;;2.17;1.37;;;;;;;;;;4981597;28;91368;-56
2022/09/29 12:40:21;;;;;;;2.23;1.30;;;;;;;;;;4979840;28;93270;-54
2022/09/29 12:42:54;;;;;;;2.30;1.20;;;;;;;;;;4979953;28;94728;-54
2022/09/29 12:45:23;;;;;;;2.77;1.57;;;;;;;;;;4992302;28;93438;-54
2022/09/29 12:47:55;;;;;;;2.20;1.40;;;;;;;;;;5017130;28;92119;-54
2022/09/29 12:50:26;;;;;;;1.57;1.30;;;;;;;;;;4988176;28;93277;-55
2022/09/29 12:52:55;;;;;;;1.50;1.40;;;;;;;;;;5019733;28;92874;-55
2022/09/29 12:55:25;;;;;;;1.97;1.53;;;;;;;;;;5019314;28;92039;-55
2022/09/29 12:57:53;;;;;;;3.97;2.43;;;;;;;;;;5019628;28;92011;-55
2022/09/29 13:00:23;;;;;;;3.33;1.60;;;;;;;;;;5019509;28;94240;-55
2022/09/29 13:03:01;;;;;;;1.90;1.60;;;;;;;;;;5019729;28;92755;-54
2022/09/29 13:05:38;;;;;;;2.77;1.80;;;;;;;;;;5019248;28;92064;-55
2022/09/29 13:08:27;;;;;;;1.40;1.20;;;;;;;;;;5020100;28;92334;-55
2022/09/29 13:10:59;;;;;;;1.87;1.23;;;;;;;;;;4985787;28;93814;-55
2022/09/29 13:13:31;;;;;;;2.17;1.30;;;;;;;;;;5018564;28;93933;-55
2022/09/29 13:16:03;;;;;;;2.03;1.50;;;;;;;;;;5019207;28;92090;-56
2022/09/29 13:18:49;;;;;;;2.50;1.43;;;;;;;;;;5018516;28;92119;-56
2022/09/29 13:21:37;;;;;;;3.73;1.63;;;;;;;;;;4995960;28;95011;-55
2022/09/29 13:24:26;;;;;;;1.77;1.33;;;;;;;;;;5000274;28;92845;-56
2022/09/29 13:27:00;;;;;;;4.07;1.77;;;;;;;;;;4998330;28;92434;-56
2022/09/29 13:29:28;;;;;;;7.33;2.20;;;;;;;;;;5000039;28;91305;-56
2022/09/29 13:31:56;;;;;;;2.27;1.73;;;;;;;;;;4999078;28;93173;-56
2022/09/29 13:34:28;;;;;;;2.03;1.70;;;;;;;;;;4999057;28;93762;-55
2022/09/29 13:37:06;;;;;;;2.73;1.40;;;;;;;;;;4999165;28;93002;-55
2022/09/29 13:39:34;;;;;;;2.73;1.63;;;;;;;;;;4998702;28;92102;-55
2022/09/29 13:42:17;;;;;;;2.13;1.23;;;;;;;;;;5008340;28;94470;-55
2022/09/29 13:44:46;;;;;;;2.60;1.53;;;;;;;;;;5005350;28;93057;-55
2022/09/29 13:47:28;;;;;;;3.23;2.20;;;;;;;;;;5009352;28;92107;-56
2022/09/29 13:49:57;;;;;;;3.30;1.93;;;;;;;;;;5009136;28;92123;-54
2022/09/29 13:52:38;;;;;;;4.07;1.90;;;;;;;;;;5008016;28;93432;-56
2022/09/29 13:55:21;;;;;;;2.30;1.77;;;;;;;;;;5007053;28;93668;-55
2022/09/29 13:57:51;;;;;;;3.47;2.03;;;;;;;;;;5005728;28;92173;-55
2022/09/29 14:00:20;;;;;;;2.47;1.70;;;;;;;;;;4998721;28;92043;-56
2022/09/29 14:03:03;;;;;;;5.37;3.20;;;;;;;;;;4997823;28;94170;-56
2022/09/29 14:05:50;;;;;;;6.63;2.90;;;;;;;;;;4996275;28;92599;-55
2022/09/29 14:08:21;;;;;;;3.57;2.73;;;;;;;;;;4988659;28;92022;-55
2022/09/29 14:10:51;;;;;;;4.93;2.40;;;;;;;;;;4999010;28;92578;-55
2022/09/29 14:13:21;;;;;;;5.97;3.13;;;;;;;;;;4997414;28;93190;-55
2022/09/29 14:15:51;;;;;;;6.30;3.10;;;;;;;;;;4997231;28;92052;-57
2022/09/29 14:18:23;;;;;;;4.93;3.53;;;;;;;;;;4997886;28;92080;-55
2022/09/29 14:20:58;;;;;;;6.03;2.70;;;;;;;;;;4999221;28;91301;-55
2022/09/29 14:23:59;;;;;;;5.73;3.30;;;;;;;;;;4995606;28;93127;-55
2022/09/29 14:26:48;;;;;;;8.03;3.50;;;;;;;;;;4961013;28;92804;-56
2022/09/29 14:29:17;;;;;;;5.27;3.67;;;;;;;;;;4974718;28;93094;-54
2022/09/29 14:31:46;;;;;;;4.27;2.57;;;;;;;;;;4984084;28;92022;-54
2022/09/29 14:34:15;;;;;;;6.37;2.90;;;;;;;;;;4987721;28;93705;-56
2022/09/29 14:36:45;;;;;;;4.97;3.17;;;;;;;;;;4983577;28;92739;-55
2022/09/29 14:39:14;;;;;;;4.30;3.13;;;;;;;;;;4993937;28;91958;-56
2022/09/29 14:42:04;;;;;;;5.83;3.60;;;;;;;;;;4988818;28;92174;-55
2022/09/29 14:53:10;;;;;;;5.20;3.10;;;;;;;;;;4989345;28;92555;-56
2022/09/29 14:55:42;;;;;;;5.17;3.80;;;;;;;;;;4990432;28;93997;-55
2022/09/29 14:58:20;;;;;;;4.37;2.97;;;;;;;;;;4997480;28;93828;-55
2022/09/29 15:00:53;;;;;;;4.00;2.30;;;;;;;;;;4998380;28;92020;-55
2022/09/29 15:03:24;;;;;;;2.50;2.10;;;;;;;;;;4997454;28;92095;-55
2022/09/29 15:06:05;;;;;;;5.37;3.80;;;;;;;;;;4998635;28;93083;-56
2022/09/29 15:08:35;;;;;;;4.47;3.20;;;;;;;;;;5004773;28;92749;-56
2022/09/29 15:11:06;;;;;;;7.67;4.30;;;;;;;;;;4997589;28;91958;-55
2022/09/29 15:13:36;;;;;;;6.13;3.60;;;;;;;;;;4999237;28;91382;-54
2022/09/29 15:16:04;;;;;;;4.83;3.10;;;;;;;;;;4996715;28;92928;-55